sensor_id;sensor_type;location;lat;lon;timestamp;pressure;altitude;pressure_sealevel;temperature;humidity
63907;BME280;50075;49.484;11.238;2022-09-09T00:01:35;97584.22;;;18.46;100.00
63907;BME280;50075;49.484;11.238;2022-09-09T00:06:46;97576.47;;;18.77;100.00
63907;BME280;50075;49.484;11.238;2022-09-09T00:09:26;97571.97;;;18.34;100.00
63907;BME280;50075;49.484;11.238;2022-09-09T00:11:54;97565.97;;;18.43;100.00
63907;BME280;50075;49.484;11.238;2022-09-09T00:17:05;97571.88;;;18.24;100.00
63907;BME280;50075;49.484;11.238;2022-09-09T00:19:59;97566.94;;;18.30;100.00
63907;BME280;50075;49.484;11.238;2022-09-09T00:22:29;97563.44;;;18.41;100.00
63907;BME280;50075;49.484;11.238;2022-09-09T00:25:11;97560.78;;;18.41;100.00
63907;BME280;50075;49.484;11.238;2022-09-09T00:27:42;97557.31;;;18.41;100.00
63907;BME280;50075;49.484;11.238;2022-09-09T00:33:11;97553.19;;;18.59;100.00
63907;BME280;50075;49.484;11.238;2022-09-09T00:35:44;97564.31;;;17.97;100.00
63907;BME280;50075;49.484;11.238;2022-09-09T00:41:54;97562.72;;;18.39;100.00
63907;BME280;50075;49.484;11.238;2022-09-09T00:44:28;97565.16;;;18.20;100.00
63907;BME280;50075;49.484;11.238;2022-09-09T00:50:03;97555.34;;;18.10;100.00
63907;BME280;50075;49.484;11.238;2022-09-09T00:52:37;97557.50;;;18.05;100.00
63907;BME280;50075;49.484;11.238;2022-09-09T00:58:07;97562.03;;;18.15;100.00
63907;BME280;50075;49.484;11.238;2022-09-09T01:01:12;97565.50;;;17.81;100.00
63907;BME280;50075;49.484;11.238;2022-09-09T01:03:54;97565.16;;;17.97;100.00
63907;BME280;50075;49.484;11.238;2022-09-09T01:09:10;97565.00;;;18.21;100.00
63907;BME280;50075;49.484;11.238;2022-09-09T01:14:35;97562.38;;;18.10;100.00
63907;BME280;50075;49.484;11.238;2022-09-09T01:17:30;97562.16;;;17.90;100.00
63907;BME280;50075;49.484;11.238;2022-09-09T01:20:12;97563.69;;;18.38;100.00
63907;BME280;50075;49.484;11.238;2022-09-09T01:28:29;97556.16;;;18.11;100.00
63907;BME280;50075;49.484;11.238;2022-09-09T01:30:56;97555.00;;;18.59;100.00
63907;BME280;50075;49.484;11.238;2022-09-09T01:33:22;97560.09;;;18.39;100.00
63907;BME280;50075;49.484;11.238;2022-09-09T01:35:55;97563.59;;;18.06;100.00
63907;BME280;50075;49.484;11.238;2022-09-09T01:38:22;97565.13;;;17.75;100.00
63907;BME280;50075;49.484;11.238;2022-09-09T01:40:49;97564.88;;;17.78;100.00
63907;BME280;50075;49.484;11.238;2022-09-09T01:43:20;97565.03;;;17.87;100.00
63907;BME280;50075;49.484;11.238;2022-09-09T01:45:48;97561.44;;;17.88;100.00
63907;BME280;50075;49.484;11.238;2022-09-09T01:48:15;97561.56;;;17.98;100.00
63907;BME280;50075;49.484;11.238;2022-09-09T01:50:40;97562.97;;;18.25;100.00
63907;BME280;50075;49.484;11.238;2022-09-09T01:53:06;97571.19;;;17.52;100.00
63907;BME280;50075;49.484;11.238;2022-09-09T01:55:35;97576.97;;;17.69;100.00
63907;BME280;50075;49.484;11.238;2022-09-09T02:03:38;97568.06;;;17.47;100.00
63907;BME280;50075;49.484;11.238;2022-09-09T02:08:52;97555.81;;;18.27;100.00
63907;BME280;50075;49.484;11.238;2022-09-09T02:11:22;97552.09;;;18.18;100.00
63907;BME280;50075;49.484;11.238;2022-09-09T02:13:51;97549.19;;;18.10;100.00
63907;BME280;50075;49.484;11.238;2022-09-09T02:18:57;97550.94;;;18.43;100.00
63907;BME280;50075;49.484;11.238;2022-09-09T02:21:28;97553.13;;;18.38;100.00
63907;BME280;50075;49.484;11.238;2022-09-09T02:23:55;97551.22;;;18.29;100.00
63907;BME280;50075;49.484;11.238;2022-09-09T02:26:23;97548.72;;;18.16;100.00
63907;BME280;50075;49.484;11.238;2022-09-09T02:28:51;97543.78;;;18.78;100.00
63907;BME280;50075;49.484;11.238;2022-09-09T02:31:22;97542.72;;;18.03;100.00
63907;BME280;50075;49.484;11.238;2022-09-09T02:33:54;97539.06;;;18.49;100.00
63907;BME280;50075;49.484;11.238;2022-09-09T02:36:24;97537.78;;;18.32;100.00
63907;BME280;50075;49.484;11.238;2022-09-09T02:38:51;97540.56;;;18.08;100.00
63907;BME280;50075;49.484;11.238;2022-09-09T02:41:37;97546.25;;;18.47;100.00
63907;BME280;50075;49.484;11.238;2022-09-09T02:44:09;97539.16;;;18.59;100.00
63907;BME280;50075;49.484;11.238;2022-09-09T02:49:04;97543.91;;;18.33;100.00
63907;BME280;50075;49.484;11.238;2022-09-09T02:56:30;97536.41;;;18.93;100.00
63907;BME280;50075;49.484;11.238;2022-09-09T02:58:58;97546.38;;;19.42;100.00
63907;BME280;50075;49.484;11.238;2022-09-09T03:01:24;97542.25;;;19.07;100.00
63907;BME280;50075;49.484;11.238;2022-09-09T03:03:49;97547.88;;;18.71;100.00
63907;BME280;50075;49.484;11.238;2022-09-09T03:06:15;97544.88;;;18.20;100.00
63907;BME280;50075;49.484;11.238;2022-09-09T03:08:40;97540.81;;;18.82;100.00
63907;BME280;50075;49.484;11.238;2022-09-09T03:11:07;97541.25;;;18.44;100.00
63907;BME280;50075;49.484;11.238;2022-09-09T03:13:34;97543.13;;;18.53;100.00
63907;BME280;50075;49.484;11.238;2022-09-09T03:15:59;97532.66;;;19.06;100.00
63907;BME280;50075;49.484;11.238;2022-09-09T03:18:25;97534.72;;;18.59;100.00
63907;BME280;50075;49.484;11.238;2022-09-09T03:20:50;97530.09;;;18.73;100.00
63907;BME280;50075;49.484;11.238;2022-09-09T03:23:16;97541.41;;;18.63;100.00
63907;BME280;50075;49.484;11.238;2022-09-09T03:25:48;97538.28;;;18.69;100.00
63907;BME280;50075;49.484;11.238;2022-09-09T03:28:14;97540.66;;;18.73;100.00
63907;BME280;50075;49.484;11.238;2022-09-09T03:30:39;97531.72;;;18.96;100.00
63907;BME280;50075;49.484;11.238;2022-09-09T03:33:05;97545.50;;;18.56;100.00
63907;BME280;50075;49.484;11.238;2022-09-09T03:35:30;97534.53;;;18.40;100.00
63907;BME280;50075;49.484;11.238;2022-09-09T03:37:55;97538.34;;;18.91;100.00
63907;BME280;50075;49.484;11.238;2022-09-09T03:40:21;97539.56;;;18.32;100.00
63907;BME280;50075;49.484;11.238;2022-09-09T03:42:46;97535.75;;;19.12;100.00
63907;BME280;50075;49.484;11.238;2022-09-09T03:45:13;97537.03;;;18.41;100.00
63907;BME280;50075;49.484;11.238;2022-09-09T03:47:38;97535.28;;;18.19;100.00
63907;BME280;50075;49.484;11.238;2022-09-09T03:50:05;97535.06;;;18.11;100.00
63907;BME280;50075;49.484;11.238;2022-09-09T03:52:37;97535.97;;;18.21;100.00
63907;BME280;50075;49.484;11.238;2022-09-09T03:55:04;97542.63;;;18.59;100.00
63907;BME280;50075;49.484;11.238;2022-09-09T03:57:29;97529.50;;;18.37;100.00
63907;BME280;50075;49.484;11.238;2022-09-09T03:59:55;97529.81;;;18.43;100.00
63907;BME280;50075;49.484;11.238;2022-09-09T04:02:20;97537.44;;;18.03;100.00
63907;BME280;50075;49.484;11.238;2022-09-09T04:04:46;97538.16;;;17.94;100.00
63907;BME280;50075;49.484;11.238;2022-09-09T04:07:11;97537.66;;;18.77;100.00
63907;BME280;50075;49.484;11.238;2022-09-09T04:09:37;97540.06;;;18.37;100.00
63907;BME280;50075;49.484;11.238;2022-09-09T04:12:03;97537.53;;;18.79;100.00
63907;BME280;50075;49.484;11.238;2022-09-09T04:14:29;97536.94;;;18.32;100.00
63907;BME280;50075;49.484;11.238;2022-09-09T04:16:55;97525.53;;;18.75;100.00
63907;BME280;50075;49.484;11.238;2022-09-09T04:19:23;97526.88;;;18.25;100.00
63907;BME280;50075;49.484;11.238;2022-09-09T04:21:48;97527.03;;;18.56;100.00
63907;BME280;50075;49.484;11.238;2022-09-09T04:24:15;97528.91;;;18.77;100.00
63907;BME280;50075;49.484;11.238;2022-09-09T04:26:41;97528.06;;;19.09;100.00
63907;BME280;50075;49.484;11.238;2022-09-09T04:29:06;97528.38;;;18.62;100.00
63907;BME280;50075;49.484;11.238;2022-09-09T04:31:32;97534.00;;;18.57;100.00
63907;BME280;50075;49.484;11.238;2022-09-09T04:33:58;97538.13;;;19.15;100.00
63907;BME280;50075;49.484;11.238;2022-09-09T04:36:27;97534.19;;;19.09;100.00
63907;BME280;50075;49.484;11.238;2022-09-09T04:38:52;97545.81;;;19.60;100.00
63907;BME280;50075;49.484;11.238;2022-09-09T04:41:18;97534.78;;;19.34;100.00
63907;BME280;50075;49.484;11.238;2022-09-09T04:43:43;97533.41;;;19.81;100.00
63907;BME280;50075;49.484;11.238;2022-09-09T04:46:09;97530.00;;;19.06;100.00
63907;BME280;50075;49.484;11.238;2022-09-09T04:48:35;97532.22;;;19.95;100.00
63907;BME280;50075;49.484;11.238;2022-09-09T04:51:03;97529.69;;;20.34;100.00
63907;BME280;50075;49.484;11.238;2022-09-09T04:53:30;97526.88;;;20.86;100.00
63907;BME280;50075;49.484;11.238;2022-09-09T04:56:06;97532.75;;;19.89;100.00
63907;BME280;50075;49.484;11.238;2022-09-09T04:58:33;97531.28;;;20.06;100.00
63907;BME280;50075;49.484;11.238;2022-09-09T05:03:29;97537.81;;;20.02;100.00
63907;BME280;50075;49.484;11.238;2022-09-09T05:06:11;97541.03;;;19.75;100.00
63907;BME280;50075;49.484;11.238;2022-09-09T05:08:38;97533.81;;;20.17;100.00
63907;BME280;50075;49.484;11.238;2022-09-09T05:11:24;97536.75;;;20.65;100.00
63907;BME280;50075;49.484;11.238;2022-09-09T05:13:51;97532.94;;;19.55;100.00
63907;BME280;50075;49.484;11.238;2022-09-09T05:16:18;97542.31;;;19.38;100.00
63907;BME280;50075;49.484;11.238;2022-09-09T05:18:44;97538.84;;;20.20;100.00
63907;BME280;50075;49.484;11.238;2022-09-09T05:21:12;97541.41;;;20.32;100.00
63907;BME280;50075;49.484;11.238;2022-09-09T05:23:38;97544.25;;;20.09;100.00
63907;BME280;50075;49.484;11.238;2022-09-09T05:26:04;97555.19;;;19.95;100.00
63907;BME280;50075;49.484;11.238;2022-09-09T05:28:30;97550.75;;;20.36;100.00
63907;BME280;50075;49.484;11.238;2022-09-09T05:31:00;97551.94;;;21.41;100.00
63907;BME280;50075;49.484;11.238;2022-09-09T05:33:26;97554.34;;;20.85;100.00
63907;BME280;50075;49.484;11.238;2022-09-09T05:36:00;97559.38;;;21.17;100.00
63907;BME280;50075;49.484;11.238;2022-09-09T05:38:28;97560.38;;;21.93;100.00
63907;BME280;50075;49.484;11.238;2022-09-09T05:40:54;97564.94;;;20.85;100.00
63907;BME280;50075;49.484;11.238;2022-09-09T05:43:21;97559.34;;;20.78;100.00
63907;BME280;50075;49.484;11.238;2022-09-09T05:46:07;97562.44;;;20.74;100.00
63907;BME280;50075;49.484;11.238;2022-09-09T05:48:36;97564.94;;;20.95;100.00
63907;BME280;50075;49.484;11.238;2022-09-09T05:51:03;97567.44;;;20.67;100.00
63907;BME280;50075;49.484;11.238;2022-09-09T05:53:30;97561.03;;;20.89;100.00
63907;BME280;50075;49.484;11.238;2022-09-09T05:56:08;97573.84;;;20.65;100.00
63907;BME280;50075;49.484;11.238;2022-09-09T05:58:36;97581.44;;;20.38;100.00
63907;BME280;50075;49.484;11.238;2022-09-09T06:01:04;97577.06;;;20.28;100.00
63907;BME280;50075;49.484;11.238;2022-09-09T06:03:30;97573.03;;;21.62;100.00
63907;BME280;50075;49.484;11.238;2022-09-09T06:06:03;97580.44;;;20.90;100.00
63907;BME280;50075;49.484;11.238;2022-09-09T06:08:30;97571.63;;;20.79;100.00
63907;BME280;50075;49.484;11.238;2022-09-09T06:11:02;97577.78;;;21.38;100.00
63907;BME280;50075;49.484;11.238;2022-09-09T06:13:28;97576.69;;;21.12;100.00
63907;BME280;50075;49.484;11.238;2022-09-09T06:15:53;97575.16;;;20.49;100.00
63907;BME280;50075;49.484;11.238;2022-09-09T06:18:19;97574.44;;;20.37;100.00
63907;BME280;50075;49.484;11.238;2022-09-09T06:20:58;97567.88;;;20.82;100.00
63907;BME280;50075;49.484;11.238;2022-09-09T06:23:26;97566.56;;;20.57;100.00
63907;BME280;50075;49.484;11.238;2022-09-09T06:25:51;97574.84;;;21.42;100.00
63907;BME280;50075;49.484;11.238;2022-09-09T06:28:17;97570.22;;;22.48;100.00
63907;BME280;50075;49.484;11.238;2022-09-09T06:30:44;97572.19;;;23.90;100.00
63907;BME280;50075;49.484;11.238;2022-09-09T06:33:10;97572.06;;;24.85;100.00
63907;BME280;50075;49.484;11.238;2022-09-09T06:35:35;97573.44;;;27.37;100.00
63907;BME280;50075;49.484;11.238;2022-09-09T06:38:00;97581.91;;;27.64;100.00
63907;BME280;50075;49.484;11.238;2022-09-09T06:40:26;97584.56;;;28.02;90.76
63907;BME280;50075;49.484;11.238;2022-09-09T06:42:51;97581.69;;;27.27;95.07
63907;BME280;50075;49.484;11.238;2022-09-09T06:45:16;97582.50;;;25.45;100.00
63907;BME280;50075;49.484;11.238;2022-09-09T06:47:43;97583.66;;;25.34;100.00
63907;BME280;50075;49.484;11.238;2022-09-09T06:50:08;97583.47;;;25.19;100.00
63907;BME280;50075;49.484;11.238;2022-09-09T06:52:35;97587.03;;;24.00;100.00
63907;BME280;50075;49.484;11.238;2022-09-09T06:55:00;97592.22;;;24.28;100.00
63907;BME280;50075;49.484;11.238;2022-09-09T06:57:25;97594.25;;;24.42;100.00
63907;BME280;50075;49.484;11.238;2022-09-09T06:59:51;97596.94;;;24.08;100.00
63907;BME280;50075;49.484;11.238;2022-09-09T07:02:16;97596.38;;;24.39;100.00
63907;BME280;50075;49.484;11.238;2022-09-09T07:04:41;97596.13;;;25.17;100.00
63907;BME280;50075;49.484;11.238;2022-09-09T07:07:08;97606.50;;;25.20;100.00
63907;BME280;50075;49.484;11.238;2022-09-09T07:09:34;97604.84;;;25.77;93.91
63907;BME280;50075;49.484;11.238;2022-09-09T07:12:00;97607.97;;;26.69;84.07
63907;BME280;50075;49.484;11.238;2022-09-09T07:14:25;97613.41;;;28.00;83.74
63907;BME280;50075;49.484;11.238;2022-09-09T07:16:52;97609.06;;;27.61;77.36
63907;BME280;50075;49.484;11.238;2022-09-09T07:19:17;97612.88;;;25.69;83.77
63907;BME280;50075;49.484;11.238;2022-09-09T07:21:43;97605.16;;;26.07;83.56
63907;BME280;50075;49.484;11.238;2022-09-09T07:24:09;97611.09;;;26.33;82.32
63907;BME280;50075;49.484;11.238;2022-09-09T07:26:36;97614.03;;;26.95;84.73
63907;BME280;50075;49.484;11.238;2022-09-09T07:29:02;97604.13;;;27.49;78.43
63907;BME280;50075;49.484;11.238;2022-09-09T07:31:30;97615.94;;;27.55;74.28
63907;BME280;50075;49.484;11.238;2022-09-09T07:33:56;97626.31;;;29.15;66.89
63907;BME280;50075;49.484;11.238;2022-09-09T07:36:26;97633.25;;;28.58;64.62
63907;BME280;50075;49.484;11.238;2022-09-09T07:38:54;97617.13;;;27.76;67.99
63907;BME280;50075;49.484;11.238;2022-09-09T07:41:21;97612.72;;;27.14;68.31
63907;BME280;50075;49.484;11.238;2022-09-09T07:43:48;97616.88;;;26.93;69.74
63907;BME280;50075;49.484;11.238;2022-09-09T07:46:16;97621.78;;;26.33;73.51
63907;BME280;50075;49.484;11.238;2022-09-09T07:48:46;97614.81;;;26.16;70.54
63907;BME280;50075;49.484;11.238;2022-09-09T07:51:14;97624.53;;;27.27;69.07
63907;BME280;50075;49.484;11.238;2022-09-09T07:53:45;97624.03;;;27.93;68.27
63907;BME280;50075;49.484;11.238;2022-09-09T07:56:13;97622.84;;;30.14;59.82
63907;BME280;50075;49.484;11.238;2022-09-09T07:58:40;97637.47;;;30.33;52.77
63907;BME280;50075;49.484;11.238;2022-09-09T08:01:11;97630.47;;;31.82;48.33
63907;BME280;50075;49.484;11.238;2022-09-09T08:03:38;97621.53;;;30.73;52.96
63907;BME280;50075;49.484;11.238;2022-09-09T08:06:06;97630.47;;;29.39;55.00
63907;BME280;50075;49.484;11.238;2022-09-09T08:08:33;97627.13;;;28.64;58.39
63907;BME280;50075;49.484;11.238;2022-09-09T08:13:28;97622.69;;;30.58;54.05
63907;BME280;50075;49.484;11.238;2022-09-09T08:15:54;97627.25;;;30.64;52.27
63907;BME280;50075;49.484;11.238;2022-09-09T08:18:19;97630.06;;;32.12;50.57
63907;BME280;50075;49.484;11.238;2022-09-09T08:20:44;97636.09;;;33.70;47.50
63907;BME280;50075;49.484;11.238;2022-09-09T08:23:10;97629.66;;;34.77;43.83
63907;BME280;50075;49.484;11.238;2022-09-09T08:25:35;97636.28;;;32.19;45.00
63907;BME280;50075;49.484;11.238;2022-09-09T08:28:00;97621.56;;;31.95;46.18
63907;BME280;50075;49.484;11.238;2022-09-09T08:30:27;97634.06;;;33.58;43.90
63907;BME280;50075;49.484;11.238;2022-09-09T08:32:52;97631.66;;;32.60;45.55
63907;BME280;50075;49.484;11.238;2022-09-09T08:35:17;97632.41;;;33.57;42.10
63907;BME280;50075;49.484;11.238;2022-09-09T08:37:43;97625.78;;;35.99;37.87
63907;BME280;50075;49.484;11.238;2022-09-09T08:40:19;97635.34;;;35.78;38.83
63907;BME280;50075;49.484;11.238;2022-09-09T08:42:51;97632.84;;;35.34;39.47
63907;BME280;50075;49.484;11.238;2022-09-09T08:48:47;97630.66;;;36.44;36.83
63907;BME280;50075;49.484;11.238;2022-09-09T08:51:18;97624.97;;;34.84;37.60
63907;BME280;50075;49.484;11.238;2022-09-09T08:53:46;97630.44;;;33.96;38.45
63907;BME280;50075;49.484;11.238;2022-09-09T08:56:16;97632.03;;;34.48;39.85
63907;BME280;50075;49.484;11.238;2022-09-09T08:58:47;97638.56;;;36.98;35.61
63907;BME280;50075;49.484;11.238;2022-09-09T09:01:38;97632.84;;;38.42;32.66
63907;BME280;50075;49.484;11.238;2022-09-09T09:04:32;97631.53;;;34.76;37.89
63907;BME280;50075;49.484;11.238;2022-09-09T09:07:30;97626.19;;;33.50;39.62
63907;BME280;50075;49.484;11.238;2022-09-09T09:12:41;97634.75;;;34.48;37.90
63907;BME280;50075;49.484;11.238;2022-09-09T09:15:20;97625.75;;;35.63;37.98
63907;BME280;50075;49.484;11.238;2022-09-09T09:17:48;97621.00;;;35.17;36.91
63907;BME280;50075;49.484;11.238;2022-09-09T09:20:15;97627.25;;;33.17;39.94
63907;BME280;50075;49.484;11.238;2022-09-09T09:22:47;97616.78;;;35.63;37.99
63907;BME280;50075;49.484;11.238;2022-09-09T09:25:21;97620.94;;;33.87;39.80
63907;BME280;50075;49.484;11.238;2022-09-09T09:28:16;97613.88;;;32.19;40.82
63907;BME280;50075;49.484;11.238;2022-09-09T09:30:52;97613.66;;;31.87;41.67
63907;BME280;50075;49.484;11.238;2022-09-09T09:33:36;97612.22;;;33.85;40.11
63907;BME280;50075;49.484;11.238;2022-09-09T09:36:06;97610.84;;;34.01;39.16
63907;BME280;50075;49.484;11.238;2022-09-09T09:38:34;97605.66;;;34.80;37.77
63907;BME280;50075;49.484;11.238;2022-09-09T09:41:00;97600.69;;;35.07;38.20
63907;BME280;50075;49.484;11.238;2022-09-09T09:43:36;97599.50;;;32.97;39.64
63907;BME280;50075;49.484;11.238;2022-09-09T09:46:19;97599.88;;;33.71;37.57
63907;BME280;50075;49.484;11.238;2022-09-09T09:48:56;97600.09;;;35.05;36.50
63907;BME280;50075;49.484;11.238;2022-09-09T09:51:22;97591.13;;;34.56;37.14
63907;BME280;50075;49.484;11.238;2022-09-09T09:53:48;97596.03;;;31.78;39.57
63907;BME280;50075;49.484;11.238;2022-09-09T09:56:14;97590.34;;;31.06;42.30
63907;BME280;50075;49.484;11.238;2022-09-09T10:01:30;97581.06;;;29.40;46.13
63907;BME280;50075;49.484;11.238;2022-09-09T10:04:19;97583.63;;;31.77;42.24
63907;BME280;50075;49.484;11.238;2022-09-09T10:06:46;97581.91;;;31.22;41.67
63907;BME280;50075;49.484;11.238;2022-09-09T10:09:27;97586.44;;;32.28;39.97
63907;BME280;50075;49.484;11.238;2022-09-09T10:15:02;97576.72;;;34.00;41.50
63907;BME280;50075;49.484;11.238;2022-09-09T10:26:16;97566.78;;;34.19;39.14
63907;BME280;50075;49.484;11.238;2022-09-09T10:29:12;97571.28;;;33.56;40.37
63907;BME280;50075;49.484;11.238;2022-09-09T10:32:02;97567.22;;;33.91;38.82
63907;BME280;50075;49.484;11.238;2022-09-09T10:34:48;97562.03;;;35.00;37.20
63907;BME280;50075;49.484;11.238;2022-09-09T10:40:33;97558.66;;;33.75;37.68
63907;BME280;50075;49.484;11.238;2022-09-09T10:46:21;97544.56;;;32.78;41.31
63907;BME280;50075;49.484;11.238;2022-09-09T10:57:51;97540.53;;;30.27;41.28
63907;BME280;50075;49.484;11.238;2022-09-09T11:00:20;97536.47;;;29.18;43.45
63907;BME280;50075;49.484;11.238;2022-09-09T11:03:02;97533.81;;;31.12;39.89
63907;BME280;50075;49.484;11.238;2022-09-09T11:05:44;97528.75;;;30.76;41.27
63907;BME280;50075;49.484;11.238;2022-09-09T11:08:26;97529.94;;;30.60;42.25
63907;BME280;50075;49.484;11.238;2022-09-09T11:13:38;97534.66;;;31.46;41.13
63907;BME280;50075;49.484;11.238;2022-09-09T11:18:45;97528.41;;;30.38;42.62
63907;BME280;50075;49.484;11.238;2022-09-09T11:21:31;97524.72;;;31.47;42.84
63907;BME280;50075;49.484;11.238;2022-09-09T11:24:03;97532.00;;;30.51;44.46
63907;BME280;50075;49.484;11.238;2022-09-09T11:26:37;97539.59;;;29.43;43.13
63907;BME280;50075;49.484;11.238;2022-09-09T11:29:12;97529.56;;;29.30;45.14
63907;BME280;50075;49.484;11.238;2022-09-09T11:42:25;97523.03;;;30.38;46.84
63907;BME280;50075;49.484;11.238;2022-09-09T11:44:51;97525.50;;;29.69;46.24
63907;BME280;50075;49.484;11.238;2022-09-09T11:47:27;97528.72;;;30.21;45.01
63907;BME280;50075;49.484;11.238;2022-09-09T11:52:43;97517.63;;;28.96;45.02
63907;BME280;50075;49.484;11.238;2022-09-09T11:58:04;97520.03;;;30.61;42.41
63907;BME280;50075;49.484;11.238;2022-09-09T12:00:36;97521.31;;;32.18;40.68
63907;BME280;50075;49.484;11.238;2022-09-09T12:03:40;97517.22;;;29.99;42.13
63907;BME280;50075;49.484;11.238;2022-09-09T12:06:27;97514.88;;;29.83;42.47
63907;BME280;50075;49.484;11.238;2022-09-09T12:11:40;97507.41;;;29.07;45.23
63907;BME280;50075;49.484;11.238;2022-09-09T12:17:18;97495.09;;;29.34;45.01
63907;BME280;50075;49.484;11.238;2022-09-09T12:19:44;97497.44;;;29.44;44.92
63907;BME280;50075;49.484;11.238;2022-09-09T12:22:32;97504.84;;;28.98;47.29
63907;BME280;50075;49.484;11.238;2022-09-09T12:27:32;97489.16;;;30.08;47.24
63907;BME280;50075;49.484;11.238;2022-09-09T12:30:14;97479.47;;;30.82;44.37
63907;BME280;50075;49.484;11.238;2022-09-09T12:32:40;97480.34;;;30.96;43.12
63907;BME280;50075;49.484;11.238;2022-09-09T12:37:40;97472.06;;;31.24;44.26
63907;BME280;50075;49.484;11.238;2022-09-09T12:40:23;97474.78;;;30.98;43.57
63907;BME280;50075;49.484;11.238;2022-09-09T12:42:49;97476.22;;;31.60;42.93
63907;BME280;50075;49.484;11.238;2022-09-09T12:45:20;97461.53;;;31.03;43.40
63907;BME280;50075;49.484;11.238;2022-09-09T12:52:43;97478.22;;;31.92;39.69
63907;BME280;50075;49.484;11.238;2022-09-09T12:55:17;97468.75;;;31.09;38.57
63907;BME280;50075;49.484;11.238;2022-09-09T12:57:43;97469.56;;;31.23;42.19
63907;BME280;50075;49.484;11.238;2022-09-09T13:00:17;97466.97;;;30.41;40.96
63907;BME280;50075;49.484;11.238;2022-09-09T13:02:57;97471.56;;;30.12;42.36
63907;BME280;50075;49.484;11.238;2022-09-09T13:07:49;97466.66;;;30.84;42.85
63907;BME280;50075;49.484;11.238;2022-09-09T13:10:22;97454.84;;;31.65;40.55
63907;BME280;50075;49.484;11.238;2022-09-09T13:12:49;97457.31;;;30.87;41.24
63907;BME280;50075;49.484;11.238;2022-09-09T13:15:26;97458.03;;;29.86;42.52
63907;BME280;50075;49.484;11.238;2022-09-09T13:17:59;97464.31;;;29.71;41.78
63907;BME280;50075;49.484;11.238;2022-09-09T13:20:26;97495.69;;;29.57;42.39
63907;BME280;50075;49.484;11.238;2022-09-09T13:22:53;97499.31;;;28.42;46.60
63907;BME280;50075;49.484;11.238;2022-09-09T13:25:25;97498.09;;;28.81;47.17
63907;BME280;50075;49.484;11.238;2022-09-09T13:28:04;97507.34;;;27.67;50.40
63907;BME280;50075;49.484;11.238;2022-09-09T13:30:36;97514.44;;;27.45;53.61
63907;BME280;50075;49.484;11.238;2022-09-09T13:35:58;97508.53;;;26.26;62.67
63907;BME280;50075;49.484;11.238;2022-09-09T13:38:24;97508.44;;;26.43;71.99
63907;BME280;50075;49.484;11.238;2022-09-09T13:41:08;97495.94;;;26.43;72.30
63907;BME280;50075;49.484;11.238;2022-09-09T13:43:44;97496.03;;;27.04;69.20
63907;BME280;50075;49.484;11.238;2022-09-09T13:46:32;97494.06;;;27.59;64.76
63907;BME280;50075;49.484;11.238;2022-09-09T13:49:19;97497.47;;;27.68;62.08
63907;BME280;50075;49.484;11.238;2022-09-09T13:52:31;97483.22;;;27.53;60.98
63907;BME280;50075;49.484;11.238;2022-09-09T13:54:32;97486.94;;;27.81;58.61
63907;BME280;50075;49.484;11.238;2022-09-09T13:56:58;97487.50;;;27.62;58.94
63907;BME280;50075;49.484;11.238;2022-09-09T13:59:23;97489.56;;;27.37;59.06
63907;BME280;50075;49.484;11.238;2022-09-09T14:01:49;97490.84;;;28.45;60.36
63907;BME280;50075;49.484;11.238;2022-09-09T14:04:18;97484.72;;;28.30;58.91
63907;BME280;50075;49.484;11.238;2022-09-09T14:06:43;97490.84;;;27.94;55.82
63907;BME280;50075;49.484;11.238;2022-09-09T14:09:13;97481.03;;;27.56;56.42
63907;BME280;50075;49.484;11.238;2022-09-09T14:11:40;97494.91;;;27.90;57.46
63907;BME280;50075;49.484;11.238;2022-09-09T14:14:05;97488.88;;;27.20;58.74
63907;BME280;50075;49.484;11.238;2022-09-09T14:16:31;97487.66;;;27.75;59.25
63907;BME280;50075;49.484;11.238;2022-09-09T14:18:56;97482.13;;;27.62;58.90
63907;BME280;50075;49.484;11.238;2022-09-09T14:21:23;97471.63;;;28.05;59.70
63907;BME280;50075;49.484;11.238;2022-09-09T14:23:48;97479.41;;;28.00;57.51
63907;BME280;50075;49.484;11.238;2022-09-09T14:26:14;97478.94;;;27.05;58.79
63907;BME280;50075;49.484;11.238;2022-09-09T14:28:40;97487.56;;;27.16;60.15
63907;BME280;50075;49.484;11.238;2022-09-09T14:31:05;97507.47;;;26.35;61.49
63907;BME280;50075;49.484;11.238;2022-09-09T14:33:31;97507.09;;;26.15;62.39
63907;BME280;50075;49.484;11.238;2022-09-09T14:36:01;97504.75;;;25.48;70.02
63907;BME280;50075;49.484;11.238;2022-09-09T14:38:35;97502.00;;;25.81;78.98
63907;BME280;50075;49.484;11.238;2022-09-09T14:41:05;97494.06;;;25.48;75.02
63907;BME280;50075;49.484;11.238;2022-09-09T14:43:30;97501.13;;;26.37;71.79
63907;BME280;50075;49.484;11.238;2022-09-09T14:46:06;97487.41;;;24.95;78.73
63907;BME280;50075;49.484;11.238;2022-09-09T14:48:32;97493.09;;;26.05;76.10
63907;BME280;50075;49.484;11.238;2022-09-09T14:53:32;97502.22;;;26.19;76.42
63907;BME280;50075;49.484;11.238;2022-09-09T14:56:09;97502.34;;;26.26;75.32
63907;BME280;50075;49.484;11.238;2022-09-09T14:58:35;97501.75;;;26.15;72.79
63907;BME280;50075;49.484;11.238;2022-09-09T15:01:06;97515.03;;;26.63;72.27
63907;BME280;50075;49.484;11.238;2022-09-09T15:03:31;97518.06;;;26.21;70.98
63907;BME280;50075;49.484;11.238;2022-09-09T15:05:57;97522.56;;;26.28;74.16
63907;BME280;50075;49.484;11.238;2022-09-09T15:08:24;97523.97;;;26.47;72.51
63907;BME280;50075;49.484;11.238;2022-09-09T15:10:49;97522.50;;;26.05;73.66
63907;BME280;50075;49.484;11.238;2022-09-09T15:13:15;97521.31;;;26.08;75.13
63907;BME280;50075;49.484;11.238;2022-09-09T15:15:42;97515.25;;;26.53;73.81